createdAt,value
2017-08-16T00:02:12.180Z,78.63
2017-08-16T00:04:39.686Z,78.66
2017-08-16T00:07:07.723Z,78.90
2017-08-16T00:09:35.196Z,79.11
2017-08-16T00:12:02.662Z,79.08
2017-08-16T00:14:30.136Z,79.01
2017-08-16T00:16:57.684Z,78.87
2017-08-16T00:19:25.181Z,78.89
2017-08-16T00:21:52.644Z,79.29
2017-08-16T00:24:20.233Z,79.58
2017-08-16T00:26:47.698Z,79.49
2017-08-16T00:29:15.171Z,79.73
2017-08-16T00:31:42.649Z,80.01
2017-08-16T00:34:10.119Z,80.06
2017-08-16T00:36:37.624Z,79.86
2017-08-16T00:39:05.095Z,79.66
2017-08-16T00:41:32.595Z,79.96
2017-08-16T00:44:00.060Z,80.10
2017-08-16T00:46:27.538Z,80.26
2017-08-16T00:48:54.989Z,80.21
2017-08-16T00:51:22.499Z,80.11
2017-08-16T00:53:49.986Z,79.98
2017-08-16T00:56:17.446Z,80.03
2017-08-16T00:58:44.982Z,80.04
2017-08-16T01:01:12.434Z,80.02
2017-08-16T01:03:39.937Z,80.27
2017-08-16T01:06:07.414Z,80.21
2017-08-16T01:08:34.878Z,80.37
2017-08-16T01:11:02.357Z,79.96
2017-08-16T01:13:29.818Z,79.71
2017-08-16T01:15:57.276Z,79.55
2017-08-16T01:18:24.762Z,79.50
2017-08-16T01:20:52.252Z,79.38
2017-08-16T01:23:19.702Z,79.37
2017-08-16T01:25:47.181Z,79.62
2017-08-16T01:28:14.656Z,79.83
2017-08-16T01:30:42.165Z,79.84
2017-08-16T01:33:09.634Z,79.88
2017-08-16T01:35:37.127Z,79.82
2017-08-16T01:38:04.590Z,79.72
2017-08-16T01:40:32.064Z,79.75
2017-08-16T01:42:59.561Z,79.72
2017-08-16T01:45:27.009Z,79.72
2017-08-16T01:47:54.504Z,79.59
2017-08-16T01:50:21.979Z,79.87
2017-08-16T01:52:49.462Z,80.04
2017-08-16T01:55:16.954Z,79.92
2017-08-16T01:57:44.396Z,79.73
2017-08-16T02:00:11.804Z,79.53
2017-08-16T02:02:39.227Z,79.64
2017-08-16T02:05:06.658Z,79.71
2017-08-16T02:07:34.064Z,79.70
2017-08-16T02:10:01.492Z,79.71
2017-08-16T02:12:28.893Z,80.15
2017-08-16T02:14:56.328Z,80.22
2017-08-16T02:17:23.779Z,80.24
2017-08-16T02:19:51.222Z,80.24
2017-08-16T02:22:18.617Z,80.27
2017-08-16T02:24:46.096Z,80.41
2017-08-16T02:27:13.604Z,80.49
2017-08-16T02:29:41.063Z,80.71
2017-08-16T02:32:08.569Z,81.04
2017-08-16T02:34:36.014Z,81.24
2017-08-16T02:37:03.481Z,81.41
2017-08-16T02:39:30.975Z,81.26
2017-08-16T02:41:58.447Z,81.29
2017-08-16T02:44:25.902Z,81.45
2017-08-16T02:46:53.403Z,81.42
2017-08-16T02:49:20.870Z,81.14
2017-08-16T02:51:48.373Z,81.22
2017-08-16T02:54:15.846Z,81.28
2017-08-16T02:56:43.339Z,81.50
2017-08-16T02:59:10.816Z,81.48
2017-08-16T03:01:38.276Z,81.74
2017-08-16T03:04:05.774Z,81.82
2017-08-16T03:06:33.260Z,81.76
2017-08-16T03:09:00.762Z,81.81
2017-08-16T03:11:28.234Z,81.85
2017-08-16T03:13:55.746Z,81.78
2017-08-16T03:19:16.197Z,81.64
2017-08-16T03:21:43.666Z,81.69
2017-08-16T03:24:11.119Z,81.63
2017-08-16T03:26:38.626Z,81.31
2017-08-16T03:29:06.598Z,81.16
2017-08-16T03:31:34.074Z,80.89
2017-08-16T03:34:02.910Z,80.95
2017-08-16T03:36:30.379Z,80.84
2017-08-16T03:38:57.885Z,80.77
2017-08-16T03:41:25.386Z,80.83
2017-08-16T03:43:52.849Z,80.69
2017-08-16T03:46:20.449Z,80.77
2017-08-16T03:48:47.907Z,80.84
2017-08-16T03:51:15.375Z,80.82
2017-08-16T03:53:42.855Z,80.70
2017-08-16T03:56:10.329Z,80.71
2017-08-16T03:58:37.789Z,81.21
2017-08-16T04:01:05.350Z,81.07
2017-08-16T04:03:32.801Z,80.80
2017-08-16T04:06:00.263Z,80.88
2017-08-16T04:08:27.754Z,81.23
2017-08-16T04:10:55.231Z,81.29
2017-08-16T04:13:22.709Z,81.40
2017-08-16T04:15:50.195Z,81.61
2017-08-16T04:18:17.684Z,81.54
2017-08-16T04:20:45.159Z,81.20
2017-08-16T04:23:12.633Z,81.13
2017-08-16T04:25:40.241Z,81.21
2017-08-16T04:28:07.711Z,81.47
2017-08-16T04:30:35.190Z,81.56
2017-08-16T04:33:02.679Z,81.53
2017-08-16T04:35:30.170Z,81.41
2017-08-16T04:37:57.635Z,81.38
2017-08-16T04:40:25.124Z,81.61
2017-08-16T04:42:52.603Z,81.59
2017-08-16T04:45:20.083Z,81.85
2017-08-16T04:47:47.579Z,82.12
2017-08-16T04:50:15.049Z,82.00
2017-08-16T04:52:42.615Z,81.99
2017-08-16T04:55:10.057Z,81.82
2017-08-16T04:57:37.534Z,81.69
2017-08-16T05:00:04.998Z,81.68
2017-08-16T05:02:32.518Z,81.76
2017-08-16T05:04:59.973Z,81.81
2017-08-16T05:07:27.464Z,81.34
2017-08-16T05:09:54.962Z,81.03
2017-08-16T05:12:22.471Z,81.08
2017-08-16T05:14:49.971Z,81.13
2017-08-16T05:17:17.434Z,81.19
2017-08-16T05:19:44.927Z,81.05
2017-08-16T05:22:12.435Z,80.99
2017-08-16T05:24:39.963Z,80.81
2017-08-16T05:27:07.433Z,80.76
2017-08-16T05:29:34.943Z,80.94
2017-08-16T05:32:02.407Z,80.94
2017-08-16T05:34:29.912Z,80.77
2017-08-16T05:36:57.382Z,80.65
2017-08-16T05:39:24.906Z,80.59
2017-08-16T05:41:52.371Z,80.67
2017-08-16T05:44:19.879Z,80.64
2017-08-16T05:46:47.345Z,80.58
2017-08-16T05:49:14.830Z,80.45
2017-08-16T05:51:42.289Z,80.45
2017-08-16T05:54:10.715Z,80.44
2017-08-16T05:56:38.193Z,80.29
2017-08-16T05:59:05.699Z,80.45
2017-08-16T06:01:33.219Z,80.32
2017-08-16T06:04:00.702Z,80.05
2017-08-16T06:06:29.877Z,79.79
2017-08-16T06:08:59.140Z,79.49
2017-08-16T06:11:26.650Z,79.73
2017-08-16T06:13:54.134Z,79.96
2017-08-16T06:16:21.637Z,80.00
2017-08-16T06:18:49.109Z,79.82
2017-08-16T06:21:16.575Z,79.45
2017-08-16T06:23:44.086Z,78.88
2017-08-16T06:26:11.545Z,78.70
2017-08-16T06:28:39.068Z,78.45
2017-08-16T06:31:06.574Z,78.13
2017-08-16T06:33:34.056Z,78.27
2017-08-16T06:36:01.548Z,78.33
2017-08-16T06:38:29.053Z,78.59
2017-08-16T06:40:56.590Z,78.91
2017-08-16T06:43:24.234Z,79.51
2017-08-16T06:45:51.726Z,79.42
2017-08-16T06:48:19.198Z,79.19
2017-08-16T06:50:47.270Z,79.16
2017-08-16T06:53:14.762Z,79.04
2017-08-16T06:55:42.279Z,78.81
2017-08-16T06:58:09.837Z,78.76
2017-08-16T07:00:37.445Z,78.17
2017-08-16T07:03:04.983Z,78.29
2017-08-16T07:05:32.461Z,77.94
2017-08-16T07:07:59.972Z,77.59
2017-08-16T07:10:27.428Z,77.79
2017-08-16T07:12:54.948Z,77.61
2017-08-16T07:15:22.433Z,77.52
2017-08-16T07:17:49.940Z,76.79
2017-08-16T07:20:17.438Z,76.18
2017-08-16T07:22:44.942Z,75.66
2017-08-16T07:25:12.447Z,75.15
2017-08-16T07:27:39.980Z,74.82
2017-08-16T07:30:07.588Z,74.56
2017-08-16T07:32:35.052Z,74.45
2017-08-16T07:35:02.567Z,74.39
2017-08-16T07:37:30.038Z,74.31
2017-08-16T07:39:58.060Z,73.91
2017-08-16T07:42:27.334Z,73.20
2017-08-16T07:44:54.868Z,72.10
2017-08-16T07:47:22.422Z,71.76
2017-08-16T07:49:50.119Z,72.13
2017-08-16T07:52:17.715Z,71.52
2017-08-16T07:54:45.252Z,70.51
2017-08-16T07:57:12.778Z,70.01
2017-08-16T07:59:40.317Z,69.96
2017-08-16T08:02:07.804Z,69.99
2017-08-16T08:04:35.280Z,68.50
2017-08-16T08:07:03.027Z,67.15
2017-08-16T08:09:31.273Z,67.84
2017-08-16T08:11:58.778Z,66.98
2017-08-16T08:14:26.257Z,66.54
2017-08-16T08:16:53.780Z,66.77
2017-08-16T08:19:21.290Z,66.18
2017-08-16T08:21:48.749Z,66.56
2017-08-16T08:24:16.249Z,66.50
2017-08-16T08:26:43.747Z,66.25
2017-08-16T08:29:11.277Z,65.16
2017-08-16T08:31:38.816Z,64.33
2017-08-16T08:34:07.073Z,64.35
2017-08-16T08:36:34.554Z,63.58
2017-08-16T08:39:02.094Z,63.81
2017-08-16T08:41:29.657Z,64.81
2017-08-16T08:43:57.163Z,65.28
2017-08-16T08:46:24.651Z,65.49
2017-08-16T08:48:52.122Z,65.56
2017-08-16T08:51:20.135Z,65.35
2017-08-16T08:53:47.679Z,63.55
2017-08-16T08:56:17.592Z,63.47
2017-08-16T08:58:48.250Z,62.84
2017-08-16T09:01:18.626Z,61.65
2017-08-16T09:03:46.086Z,61.58
2017-08-16T09:06:15.645Z,61.41
2017-08-16T09:08:46.610Z,61.00
2017-08-16T09:11:14.090Z,60.69
2017-08-16T09:13:41.575Z,59.43
2017-08-16T09:16:09.051Z,59.15
2017-08-16T09:18:36.546Z,60.03
2017-08-16T09:21:04.004Z,59.81
2017-08-16T09:23:31.512Z,58.87
2017-08-16T09:25:59.051Z,59.48
2017-08-16T09:28:26.565Z,59.72
2017-08-16T09:30:54.077Z,59.26
2017-08-16T09:33:21.904Z,58.69
2017-08-16T09:35:49.425Z,58.43
2017-08-16T09:38:16.925Z,58.05
2017-08-16T09:40:44.423Z,58.41
2017-08-16T09:43:12.709Z,57.86
2017-08-16T09:45:40.227Z,58.00
2017-08-16T09:48:07.696Z,58.48
2017-08-16T09:50:35.201Z,58.48
2017-08-16T09:53:02.688Z,56.70
2017-08-16T09:55:30.186Z,57.02
2017-08-16T09:57:57.665Z,56.64
2017-08-16T10:00:25.130Z,56.99
2017-08-16T10:02:53.267Z,57.86
2017-08-16T10:05:20.755Z,57.16
2017-08-16T10:07:48.293Z,57.10
2017-08-16T10:10:15.754Z,57.28
2017-08-16T10:12:43.231Z,57.74
2017-08-16T10:15:10.680Z,56.73
2017-08-16T10:17:38.182Z,56.23
2017-08-16T10:20:05.692Z,55.81
2017-08-16T10:22:33.204Z,54.44
2017-08-16T10:25:00.688Z,54.80
2017-08-16T10:27:28.158Z,55.81
2017-08-16T10:29:55.640Z,55.80
2017-08-16T10:32:23.122Z,55.46
2017-08-16T10:34:50.635Z,53.97
2017-08-16T10:37:18.080Z,53.72
2017-08-16T10:39:45.564Z,54.76
2017-08-16T10:42:13.051Z,53.62
2017-08-16T10:44:40.603Z,53.69
2017-08-16T10:47:08.565Z,52.81
2017-08-16T10:49:36.018Z,52.50
2017-08-16T10:52:03.524Z,53.20
2017-08-16T10:54:30.991Z,54.31
2017-08-16T10:56:58.470Z,54.22
2017-08-16T10:59:25.942Z,52.94
2017-08-16T11:01:53.453Z,53.61
2017-08-16T11:04:20.931Z,54.45
2017-08-16T11:06:48.381Z,54.00
2017-08-16T11:09:15.860Z,53.41
2017-08-16T11:11:43.345Z,53.01
2017-08-16T11:14:11.724Z,53.13
2017-08-16T11:16:40.143Z,52.57
2017-08-16T11:19:07.702Z,52.12
2017-08-16T11:21:35.887Z,51.68
2017-08-16T11:24:03.514Z,51.09
2017-08-16T11:26:31.020Z,51.40
2017-08-16T11:28:58.521Z,50.50
2017-08-16T11:31:26.003Z,51.45
2017-08-16T11:33:53.649Z,51.82
2017-08-16T11:36:21.160Z,50.96
2017-08-16T11:38:49.170Z,51.33
2017-08-16T11:41:16.692Z,50.94
2017-08-16T11:43:44.248Z,50.48
2017-08-16T11:46:11.706Z,50.13
2017-08-16T11:48:39.276Z,48.78
2017-08-16T11:51:06.816Z,48.62
2017-08-16T11:53:34.297Z,49.97
2017-08-16T11:56:01.837Z,50.05
2017-08-16T11:58:29.331Z,49.09
2017-08-16T12:00:56.785Z,50.12
2017-08-16T12:03:24.277Z,50.36
2017-08-16T12:05:51.834Z,49.30
2017-08-16T12:08:19.336Z,49.30
2017-08-16T12:10:46.849Z,50.32
2017-08-16T12:13:14.358Z,50.31
2017-08-16T12:15:41.893Z,49.46
2017-08-16T12:18:09.351Z,49.45
2017-08-16T12:20:36.852Z,49.37
2017-08-16T12:23:04.403Z,49.08
2017-08-16T12:25:31.911Z,48.62
2017-08-16T12:27:59.399Z,48.60
2017-08-16T12:30:26.885Z,48.41
2017-08-16T12:32:54.344Z,48.31
2017-08-16T12:35:21.843Z,48.20
2017-08-16T12:37:49.323Z,47.89
2017-08-16T12:40:16.845Z,47.62
2017-08-16T12:42:45.242Z,48.08
2017-08-16T12:45:13.317Z,48.45
2017-08-16T12:47:41.367Z,48.85
2017-08-16T12:50:08.842Z,48.24
2017-08-16T12:52:37.049Z,48.97
2017-08-16T12:55:04.532Z,49.35
2017-08-16T12:57:32.210Z,48.49
2017-08-16T13:00:00.354Z,47.67
2017-08-16T13:02:27.876Z,47.84
2017-08-16T13:04:55.340Z,47.91
2017-08-16T13:07:22.948Z,47.80
2017-08-16T13:09:50.449Z,47.24
2017-08-16T13:12:17.948Z,47.50
2017-08-16T13:14:45.446Z,47.87
2017-08-16T13:17:12.890Z,47.76
2017-08-16T13:19:40.403Z,47.28
2017-08-16T13:22:07.875Z,46.77
2017-08-16T13:24:35.417Z,46.45
2017-08-16T13:27:03.038Z,46.18
2017-08-16T13:29:30.529Z,46.21
2017-08-16T13:31:58.009Z,46.04
2017-08-16T13:34:25.524Z,45.70
2017-08-16T13:36:53.014Z,45.61
2017-08-16T13:39:20.517Z,46.10
2017-08-16T13:41:48.055Z,46.59
2017-08-16T13:44:15.520Z,46.61
2017-08-16T13:46:43.004Z,45.47
2017-08-16T13:49:10.501Z,45.07
2017-08-16T13:51:38.009Z,44.97
2017-08-16T13:54:05.492Z,44.54
2017-08-16T13:56:33.036Z,44.86
2017-08-16T13:59:00.542Z,44.06
2017-08-16T14:01:28.014Z,43.40
2017-08-16T14:03:55.507Z,42.46
2017-08-16T14:06:22.977Z,41.51
2017-08-16T14:08:50.516Z,41.55
2017-08-16T14:11:18.310Z,43.19
2017-08-16T14:13:45.786Z,44.83
2017-08-16T14:16:13.282Z,45.43
2017-08-16T14:18:41.866Z,45.71
2017-08-16T14:21:09.370Z,45.17
2017-08-16T14:23:36.828Z,45.32
2017-08-16T14:26:04.296Z,45.56
2017-08-16T14:28:31.764Z,46.23
2017-08-16T14:30:59.285Z,46.74
2017-08-16T14:33:26.749Z,48.36
2017-08-16T14:35:54.242Z,48.66
2017-08-16T14:38:21.725Z,47.92
2017-08-16T14:40:49.199Z,49.02
2017-08-16T14:43:16.673Z,49.49
2017-08-16T14:45:44.137Z,49.79
2017-08-16T14:48:11.729Z,49.97
2017-08-16T14:50:39.182Z,50.68
2017-08-16T14:53:06.673Z,50.61
2017-08-16T14:55:34.168Z,50.47
2017-08-16T14:58:01.709Z,50.08
2017-08-16T15:00:29.280Z,50.45
2017-08-16T15:02:56.789Z,50.05
2017-08-16T15:05:24.344Z,49.98
2017-08-16T15:07:51.865Z,49.53
2017-08-16T15:10:19.415Z,49.66
2017-08-16T15:12:46.934Z,50.28
2017-08-16T15:15:14.514Z,50.19
2017-08-16T15:17:42.029Z,50.76
2017-08-16T15:20:09.518Z,50.75
2017-08-16T15:22:37.053Z,51.49
2017-08-16T15:25:04.506Z,50.98
2017-08-16T15:27:32.013Z,50.97
2017-08-16T15:29:59.480Z,51.12
2017-08-16T15:32:26.999Z,51.39
2017-08-16T15:34:54.528Z,51.16
2017-08-16T15:37:22.022Z,51.86
2017-08-16T15:39:49.479Z,51.91
2017-08-16T15:42:17.223Z,51.72
2017-08-16T15:44:44.693Z,51.72
2017-08-16T15:47:12.177Z,52.03
2017-08-16T15:49:40.189Z,52.51
2017-08-16T15:52:07.712Z,52.81
2017-08-16T15:54:35.210Z,53.00
2017-08-16T15:57:03.515Z,53.50
2017-08-16T15:59:31.006Z,52.96
2017-08-16T16:01:58.470Z,52.84
2017-08-16T16:04:25.981Z,53.07
2017-08-16T16:06:54.315Z,52.59
2017-08-16T16:09:21.854Z,52.67
2017-08-16T16:11:49.330Z,52.00
2017-08-16T16:14:16.837Z,51.06
2017-08-16T16:16:44.343Z,51.07
2017-08-16T16:19:11.828Z,51.10
2017-08-16T16:21:39.317Z,50.91
2017-08-16T16:24:06.848Z,50.66
2017-08-16T16:26:34.404Z,51.17
2017-08-16T16:29:02.466Z,51.37
2017-08-16T16:31:30.678Z,51.74
2017-08-16T16:33:58.135Z,52.35
2017-08-16T16:36:25.818Z,52.68
2017-08-16T16:38:53.306Z,52.85
2017-08-16T16:41:20.764Z,53.21
2017-08-16T16:43:48.299Z,53.48
2017-08-16T16:46:15.789Z,53.10
2017-08-16T16:48:44.261Z,53.38
2017-08-16T16:51:11.864Z,53.51
2017-08-16T16:53:41.119Z,53.46
2017-08-16T16:56:08.612Z,53.33
2017-08-16T16:58:36.123Z,52.93
2017-08-16T17:01:03.611Z,53.48
2017-08-16T17:03:31.508Z,53.92
2017-08-16T17:05:59.034Z,55.08
2017-08-16T17:08:26.505Z,54.11
2017-08-16T17:10:54.023Z,54.22
2017-08-16T17:13:21.593Z,54.16
2017-08-16T17:15:49.078Z,54.34
2017-08-16T17:18:16.544Z,53.49
2017-08-16T17:20:44.034Z,54.55
2017-08-16T17:23:15.233Z,53.84
2017-08-16T17:25:42.762Z,53.45
2017-08-16T17:28:10.249Z,54.62
2017-08-16T17:30:37.750Z,53.81
2017-08-16T17:33:05.542Z,54.64
2017-08-16T17:35:33.332Z,54.59
2017-08-16T17:38:00.860Z,54.59
2017-08-16T17:40:28.375Z,54.94
2017-08-16T17:42:55.894Z,54.54
2017-08-16T17:45:23.407Z,55.14
2017-08-16T17:47:50.893Z,55.33
2017-08-16T17:50:18.607Z,55.66
2017-08-16T17:52:46.092Z,55.77
2017-08-16T17:55:13.581Z,56.07
2017-08-16T17:57:41.815Z,56.43
2017-08-16T18:00:09.328Z,56.61
2017-08-16T18:02:36.913Z,56.83
2017-08-16T18:05:04.555Z,56.67
2017-08-16T18:07:32.065Z,56.80
2017-08-16T18:09:59.553Z,57.07
2017-08-16T18:12:27.120Z,57.20
2017-08-16T18:14:54.710Z,57.42
2017-08-16T18:17:22.218Z,57.66
2017-08-16T18:19:50.396Z,57.75
2017-08-16T18:22:17.960Z,58.02
2017-08-16T18:24:45.485Z,58.20
2017-08-16T18:27:12.996Z,58.33
2017-08-16T18:29:40.582Z,58.50
2017-08-16T18:32:08.153Z,58.62
2017-08-16T18:34:35.618Z,58.92
2017-08-16T18:37:04.061Z,59.11
2017-08-16T18:39:31.604Z,59.09
2017-08-16T18:41:59.210Z,59.28
2017-08-16T18:44:26.696Z,59.45
2017-08-16T18:46:54.162Z,59.70
2017-08-16T18:49:21.725Z,59.82
2017-08-16T18:51:49.205Z,59.97
2017-08-16T18:54:16.708Z,60.06
2017-08-16T18:56:44.170Z,60.69
2017-08-16T18:59:12.059Z,61.34
2017-08-16T19:01:39.550Z,61.65
2017-08-16T19:04:07.022Z,61.92
2017-08-16T19:06:34.527Z,62.31
2017-08-16T19:09:02.015Z,62.41
2017-08-16T19:11:29.884Z,62.89
2017-08-16T19:13:57.409Z,63.33
2017-08-16T19:16:24.929Z,63.49
2017-08-16T19:18:52.692Z,63.59
2017-08-16T19:21:20.166Z,63.87
2017-08-16T19:23:47.656Z,64.03
2017-08-16T19:26:15.473Z,64.18
2017-08-16T19:28:43.006Z,64.42
2017-08-16T19:31:10.484Z,64.77
2017-08-16T19:33:38.023Z,64.75
2017-08-16T19:36:05.494Z,65.16
2017-08-16T19:38:33.015Z,65.03
2017-08-16T19:41:00.468Z,66.08
2017-08-16T19:43:28.055Z,67.36
2017-08-16T19:45:55.880Z,67.73
2017-08-16T19:48:23.402Z,68.47
2017-08-16T19:50:50.912Z,69.33
2017-08-16T19:53:18.441Z,69.48
2017-08-16T19:55:45.969Z,69.78
2017-08-16T19:58:13.427Z,70.32
2017-08-16T20:00:40.970Z,70.48
2017-08-16T20:03:08.458Z,70.99
2017-08-16T20:05:35.959Z,71.17
2017-08-16T20:08:03.447Z,70.99
2017-08-16T20:10:30.953Z,71.09
2017-08-16T20:12:58.426Z,70.74
2017-08-16T20:15:25.909Z,70.73
2017-08-16T20:17:53.381Z,70.56
2017-08-16T20:20:21.328Z,71.02
2017-08-16T20:22:48.882Z,70.96
2017-08-16T20:25:16.421Z,70.77
2017-08-16T20:27:43.883Z,70.95
2017-08-16T20:30:11.337Z,71.31
2017-08-16T20:32:38.836Z,71.30
2017-08-16T20:35:08.065Z,71.30
2017-08-16T20:37:35.583Z,71.41
2017-08-16T20:40:03.053Z,71.73
2017-08-16T20:42:30.541Z,71.98
2017-08-16T20:44:58.011Z,71.98
2017-08-16T20:47:25.502Z,71.46
2017-08-16T20:49:53.023Z,71.03
2017-08-16T20:52:20.538Z,71.19
2017-08-16T20:54:48.005Z,71.48
2017-08-16T20:57:15.639Z,71.82
2017-08-16T20:59:43.118Z,72.22
2017-08-16T21:02:10.582Z,71.83
2017-08-16T21:04:38.082Z,71.96
2017-08-16T21:07:05.529Z,72.27
2017-08-16T21:09:33.031Z,72.39
2017-08-16T21:12:00.537Z,72.35
2017-08-16T21:14:28.042Z,72.25
2017-08-16T21:16:55.493Z,72.37
2017-08-16T21:19:22.989Z,72.46
2017-08-16T21:21:50.458Z,72.75
2017-08-16T21:24:17.938Z,72.88
2017-08-16T21:26:45.438Z,73.32
2017-08-16T21:29:12.939Z,73.25
2017-08-16T21:31:40.404Z,73.23
2017-08-16T21:34:08.231Z,73.20
2017-08-16T21:36:35.699Z,73.34
2017-08-16T21:39:03.155Z,73.39
2017-08-16T21:41:31.046Z,73.73
2017-08-16T21:43:58.514Z,73.53
2017-08-16T21:46:25.977Z,73.32
2017-08-16T21:48:53.497Z,73.64
2017-08-16T21:51:21.111Z,74.19
2017-08-16T21:53:48.587Z,74.42
2017-08-16T21:56:16.074Z,74.18
2017-08-16T21:58:43.566Z,74.34
2017-08-16T22:01:11.066Z,74.68
2017-08-16T22:03:38.594Z,74.93
2017-08-16T22:06:07.832Z,74.39
2017-08-16T22:08:35.505Z,74.32
2017-08-16T22:11:03.019Z,74.61
2017-08-16T22:13:30.639Z,75.25
2017-08-16T22:15:58.185Z,75.32
2017-08-16T22:18:25.860Z,75.65
2017-08-16T22:20:53.353Z,74.66
2017-08-16T22:23:20.827Z,74.57
2017-08-16T22:25:48.315Z,74.68
2017-08-16T22:28:15.786Z,74.48
2017-08-16T22:30:43.263Z,74.39
2017-08-16T22:33:10.763Z,74.30
2017-08-16T22:35:38.222Z,74.65
2017-08-16T22:38:05.831Z,74.84
2017-08-16T22:40:33.445Z,75.23
2017-08-16T22:43:00.940Z,74.95
2017-08-16T22:45:28.450Z,74.80
2017-08-16T22:47:55.967Z,75.69
2017-08-16T22:50:23.469Z,75.75
2017-08-16T22:52:50.942Z,75.49
2017-08-16T22:55:18.444Z,75.64
2017-08-16T22:57:45.966Z,74.91
2017-08-16T23:00:13.451Z,75.68
2017-08-16T23:02:42.725Z,75.85
2017-08-16T23:05:10.235Z,75.99
2017-08-16T23:07:37.776Z,75.74
2017-08-16T23:10:05.300Z,75.54
2017-08-16T23:12:33.721Z,76.07
2017-08-16T23:15:01.259Z,75.80
2017-08-16T23:17:28.744Z,75.99
2017-08-16T23:19:56.202Z,75.65
2017-08-16T23:22:23.676Z,75.30
2017-08-16T23:24:51.173Z,75.73
2017-08-16T23:27:18.631Z,76.26
2017-08-16T23:29:46.115Z,75.48
2017-08-16T23:32:13.586Z,75.46
2017-08-16T23:34:41.074Z,75.64
2017-08-16T23:37:08.555Z,76.07
2017-08-16T23:39:36.045Z,76.33
2017-08-16T23:42:03.500Z,75.67
2017-08-16T23:44:31.188Z,76.41
2017-08-16T23:46:58.989Z,76.59
2017-08-16T23:49:26.483Z,76.96
2017-08-16T23:51:53.986Z,76.38
2017-08-16T23:54:21.470Z,75.79
2017-08-16T23:56:48.996Z,76.35
2017-08-16T23:59:16.445Z,76.20
